sensor_id;sensor_type;location;lat;lon;timestamp;P1;durP1;ratioP1;P2;durP2;ratioP2
19814;SDS011;10067;53.092;8.800;2023-01-26T00:00:54;102.57;;;43.77;;
19814;SDS011;10067;53.092;8.800;2023-01-26T00:03:20;104.57;;;45.03;;
19814;SDS011;10067;53.092;8.800;2023-01-26T00:05:47;102.43;;;42.93;;
19814;SDS011;10067;53.092;8.800;2023-01-26T00:08:13;98.63;;;43.50;;
19814;SDS011;10067;53.092;8.800;2023-01-26T00:10:41;107.70;;;45.90;;
19814;SDS011;10067;53.092;8.800;2023-01-26T00:13:14;100.63;;;43.80;;
19814;SDS011;10067;53.092;8.800;2023-01-26T00:15:41;104.97;;;45.90;;
19814;SDS011;10067;53.092;8.800;2023-01-26T00:18:07;95.53;;;42.17;;
19814;SDS011;10067;53.092;8.800;2023-01-26T00:20:34;105.77;;;44.30;;
19814;SDS011;10067;53.092;8.800;2023-01-26T00:23:00;98.73;;;44.73;;
19814;SDS011;10067;53.092;8.800;2023-01-26T00:25:27;99.27;;;42.87;;
19814;SDS011;10067;53.092;8.800;2023-01-26T00:27:55;98.17;;;41.33;;
19814;SDS011;10067;53.092;8.800;2023-01-26T00:30:21;101.10;;;42.20;;
19814;SDS011;10067;53.092;8.800;2023-01-26T00:32:48;101.80;;;43.57;;
19814;SDS011;10067;53.092;8.800;2023-01-26T00:35:14;98.73;;;41.93;;
19814;SDS011;10067;53.092;8.800;2023-01-26T00:37:41;103.77;;;43.27;;
19814;SDS011;10067;53.092;8.800;2023-01-26T00:40:08;103.93;;;42.57;;
19814;SDS011;10067;53.092;8.800;2023-01-26T00:42:34;103.57;;;42.80;;
19814;SDS011;10067;53.092;8.800;2023-01-26T00:45:02;98.33;;;40.23;;
19814;SDS011;10067;53.092;8.800;2023-01-26T00:47:29;99.80;;;42.90;;
19814;SDS011;10067;53.092;8.800;2023-01-26T00:49:55;100.33;;;43.13;;
19814;SDS011;10067;53.092;8.800;2023-01-26T00:52:21;105.67;;;44.67;;
19814;SDS011;10067;53.092;8.800;2023-01-26T00:54:48;99.80;;;42.00;;
19814;SDS011;10067;53.092;8.800;2023-01-26T00:57:14;102.93;;;43.00;;
19814;SDS011;10067;53.092;8.800;2023-01-26T00:59:40;109.83;;;45.73;;
19814;SDS011;10067;53.092;8.800;2023-01-26T01:02:08;107.73;;;44.70;;
19814;SDS011;10067;53.092;8.800;2023-01-26T01:04:35;103.97;;;42.57;;
19814;SDS011;10067;53.092;8.800;2023-01-26T01:07:01;100.23;;;41.40;;
19814;SDS011;10067;53.092;8.800;2023-01-26T01:09:28;104.83;;;42.47;;
19814;SDS011;10067;53.092;8.800;2023-01-26T01:11:54;105.30;;;42.50;;
19814;SDS011;10067;53.092;8.800;2023-01-26T01:14:20;101.87;;;41.30;;
19814;SDS011;10067;53.092;8.800;2023-01-26T01:16:47;100.77;;;42.13;;
19814;SDS011;10067;53.092;8.800;2023-01-26T01:19:15;100.10;;;40.57;;
19814;SDS011;10067;53.092;8.800;2023-01-26T01:21:42;98.27;;;41.97;;
19814;SDS011;10067;53.092;8.800;2023-01-26T01:24:08;96.23;;;41.17;;
19814;SDS011;10067;53.092;8.800;2023-01-26T01:26:35;104.17;;;43.10;;
19814;SDS011;10067;53.092;8.800;2023-01-26T01:29:01;96.50;;;40.63;;
19814;SDS011;10067;53.092;8.800;2023-01-26T01:31:28;99.47;;;42.60;;
19814;SDS011;10067;53.092;8.800;2023-01-26T01:33:54;103.60;;;42.83;;
19814;SDS011;10067;53.092;8.800;2023-01-26T01:36:22;104.73;;;41.23;;
19814;SDS011;10067;53.092;8.800;2023-01-26T01:38:48;101.73;;;41.37;;
19814;SDS011;10067;53.092;8.800;2023-01-26T01:41:15;97.90;;;40.23;;
19814;SDS011;10067;53.092;8.800;2023-01-26T01:43:42;99.53;;;42.80;;
19814;SDS011;10067;53.092;8.800;2023-01-26T01:46:10;103.13;;;41.00;;
19814;SDS011;10067;53.092;8.800;2023-01-26T01:48:40;101.17;;;42.67;;
19814;SDS011;10067;53.092;8.800;2023-01-26T01:51:11;98.00;;;40.60;;
19814;SDS011;10067;53.092;8.800;2023-01-26T01:53:40;99.47;;;40.73;;
19814;SDS011;10067;53.092;8.800;2023-01-26T01:56:09;100.07;;;41.10;;
19814;SDS011;10067;53.092;8.800;2023-01-26T01:58:37;95.47;;;41.13;;
19814;SDS011;10067;53.092;8.800;2023-01-26T02:01:06;94.37;;;40.80;;
19814;SDS011;10067;53.092;8.800;2023-01-26T02:03:33;103.13;;;43.47;;
19814;SDS011;10067;53.092;8.800;2023-01-26T02:06:02;98.33;;;40.53;;
19814;SDS011;10067;53.092;8.800;2023-01-26T02:08:30;101.30;;;42.47;;
19814;SDS011;10067;53.092;8.800;2023-01-26T02:11:01;105.70;;;41.17;;
19814;SDS011;10067;53.092;8.800;2023-01-26T02:13:30;102.43;;;41.50;;
19814;SDS011;10067;53.092;8.800;2023-01-26T02:15:57;101.83;;;41.43;;
19814;SDS011;10067;53.092;8.800;2023-01-26T02:18:24;104.57;;;43.37;;
19814;SDS011;10067;53.092;8.800;2023-01-26T02:20:52;98.60;;;39.63;;
19814;SDS011;10067;53.092;8.800;2023-01-26T02:23:22;97.87;;;41.83;;
19814;SDS011;10067;53.092;8.800;2023-01-26T02:25:59;94.47;;;40.27;;
19814;SDS011;10067;53.092;8.800;2023-01-26T02:28:26;96.03;;;39.63;;
19814;SDS011;10067;53.092;8.800;2023-01-26T02:30:52;101.37;;;40.57;;
19814;SDS011;10067;53.092;8.800;2023-01-26T02:33:20;96.30;;;41.37;;
19814;SDS011;10067;53.092;8.800;2023-01-26T02:35:47;108.83;;;42.00;;
19814;SDS011;10067;53.092;8.800;2023-01-26T02:38:13;99.70;;;41.60;;
19814;SDS011;10067;53.092;8.800;2023-01-26T02:40:42;109.00;;;43.20;;
19814;SDS011;10067;53.092;8.800;2023-01-26T02:43:10;100.27;;;42.23;;
19814;SDS011;10067;53.092;8.800;2023-01-26T02:45:36;100.30;;;42.30;;
19814;SDS011;10067;53.092;8.800;2023-01-26T02:48:03;107.30;;;41.73;;
19814;SDS011;10067;53.092;8.800;2023-01-26T02:50:30;100.50;;;42.00;;
19814;SDS011;10067;53.092;8.800;2023-01-26T02:52:56;103.43;;;41.70;;
19814;SDS011;10067;53.092;8.800;2023-01-26T02:55:22;104.37;;;42.90;;
19814;SDS011;10067;53.092;8.800;2023-01-26T02:57:49;97.87;;;41.10;;
19814;SDS011;10067;53.092;8.800;2023-01-26T03:00:17;107.13;;;43.47;;
19814;SDS011;10067;53.092;8.800;2023-01-26T03:02:44;109.97;;;43.63;;
19814;SDS011;10067;53.092;8.800;2023-01-26T03:05:11;108.23;;;42.20;;
19814;SDS011;10067;53.092;8.800;2023-01-26T03:07:38;102.90;;;42.77;;
19814;SDS011;10067;53.092;8.800;2023-01-26T03:10:04;104.27;;;42.17;;
19814;SDS011;10067;53.092;8.800;2023-01-26T03:12:31;107.17;;;43.07;;
19814;SDS011;10067;53.092;8.800;2023-01-26T03:14:57;101.17;;;40.63;;
19814;SDS011;10067;53.092;8.800;2023-01-26T03:17:43;101.30;;;41.27;;
19814;SDS011;10067;53.092;8.800;2023-01-26T03:20:09;102.27;;;43.03;;
19814;SDS011;10067;53.092;8.800;2023-01-26T03:22:54;105.17;;;42.47;;
19814;SDS011;10067;53.092;8.800;2023-01-26T03:25:38;101.40;;;40.57;;
19814;SDS011;10067;53.092;8.800;2023-01-26T03:28:22;108.70;;;42.00;;
19814;SDS011;10067;53.092;8.800;2023-01-26T03:30:49;105.53;;;40.43;;
19814;SDS011;10067;53.092;8.800;2023-01-26T03:33:17;114.27;;;42.73;;
19814;SDS011;10067;53.092;8.800;2023-01-26T03:35:43;107.83;;;42.20;;
19814;SDS011;10067;53.092;8.800;2023-01-26T03:38:10;106.40;;;40.37;;
19814;SDS011;10067;53.092;8.800;2023-01-26T03:40:36;116.43;;;43.77;;
19814;SDS011;10067;53.092;8.800;2023-01-26T03:43:20;107.03;;;42.70;;
19814;SDS011;10067;53.092;8.800;2023-01-26T03:46:05;104.57;;;39.40;;
19814;SDS011;10067;53.092;8.800;2023-01-26T03:48:50;107.10;;;40.27;;
19814;SDS011;10067;53.092;8.800;2023-01-26T03:51:33;107.47;;;41.20;;
19814;SDS011;10067;53.092;8.800;2023-01-26T03:54:17;97.57;;;40.00;;
19814;SDS011;10067;53.092;8.800;2023-01-26T03:57:01;102.87;;;40.23;;
19814;SDS011;10067;53.092;8.800;2023-01-26T03:59:27;101.97;;;41.17;;
19814;SDS011;10067;53.092;8.800;2023-01-26T04:02:03;107.77;;;40.37;;
19814;SDS011;10067;53.092;8.800;2023-01-26T04:04:48;103.93;;;39.80;;
19814;SDS011;10067;53.092;8.800;2023-01-26T04:07:32;103.37;;;40.20;;
19814;SDS011;10067;53.092;8.800;2023-01-26T04:10:16;99.60;;;39.10;;
19814;SDS011;10067;53.092;8.800;2023-01-26T04:12:42;101.60;;;40.53;;
19814;SDS011;10067;53.092;8.800;2023-01-26T04:15:09;100.40;;;38.47;;
19814;SDS011;10067;53.092;8.800;2023-01-26T04:17:53;112.73;;;43.07;;
19814;SDS011;10067;53.092;8.800;2023-01-26T04:20:38;105.63;;;38.67;;
19814;SDS011;10067;53.092;8.800;2023-01-26T04:23:22;105.63;;;40.30;;
19814;SDS011;10067;53.092;8.800;2023-01-26T04:25:48;101.27;;;39.80;;
19814;SDS011;10067;53.092;8.800;2023-01-26T04:28:15;106.57;;;41.07;;
19814;SDS011;10067;53.092;8.800;2023-01-26T04:30:41;110.17;;;40.43;;
19814;SDS011;10067;53.092;8.800;2023-01-26T04:33:07;116.90;;;43.53;;
19814;SDS011;10067;53.092;8.800;2023-01-26T04:35:34;109.93;;;40.00;;
19814;SDS011;10067;53.092;8.800;2023-01-26T04:38:02;103.47;;;38.60;;
19814;SDS011;10067;53.092;8.800;2023-01-26T04:40:28;96.80;;;37.50;;
19814;SDS011;10067;53.092;8.800;2023-01-26T04:42:54;103.37;;;38.23;;
19814;SDS011;10067;53.092;8.800;2023-01-26T04:45:21;101.50;;;40.80;;
19814;SDS011;10067;53.092;8.800;2023-01-26T04:47:47;92.83;;;38.17;;
19814;SDS011;10067;53.092;8.800;2023-01-26T04:50:15;98.43;;;37.53;;
19814;SDS011;10067;53.092;8.800;2023-01-26T04:52:41;90.30;;;36.23;;
19814;SDS011;10067;53.092;8.800;2023-01-26T04:55:09;91.40;;;37.57;;
19814;SDS011;10067;53.092;8.800;2023-01-26T04:57:36;95.97;;;37.83;;
19814;SDS011;10067;53.092;8.800;2023-01-26T05:00:02;85.87;;;34.67;;
19814;SDS011;10067;53.092;8.800;2023-01-26T05:02:29;87.63;;;34.87;;
19814;SDS011;10067;53.092;8.800;2023-01-26T05:04:56;88.70;;;35.67;;
19814;SDS011;10067;53.092;8.800;2023-01-26T05:07:22;92.67;;;34.83;;
19814;SDS011;10067;53.092;8.800;2023-01-26T05:09:49;90.03;;;35.23;;
19814;SDS011;10067;53.092;8.800;2023-01-26T05:12:16;94.53;;;37.80;;
19814;SDS011;10067;53.092;8.800;2023-01-26T05:15:02;87.37;;;36.90;;
19814;SDS011;10067;53.092;8.800;2023-01-26T05:17:28;90.13;;;36.47;;
19814;SDS011;10067;53.092;8.800;2023-01-26T05:19:55;89.03;;;34.50;;
19814;SDS011;10067;53.092;8.800;2023-01-26T05:22:21;86.60;;;34.97;;
19814;SDS011;10067;53.092;8.800;2023-01-26T05:24:48;87.47;;;33.77;;
19814;SDS011;10067;53.092;8.800;2023-01-26T05:27:14;90.63;;;35.80;;
19814;SDS011;10067;53.092;8.800;2023-01-26T05:29:48;87.80;;;34.50;;
19814;SDS011;10067;53.092;8.800;2023-01-26T05:32:15;82.50;;;32.70;;
19814;SDS011;10067;53.092;8.800;2023-01-26T05:34:41;79.27;;;32.30;;
19814;SDS011;10067;53.092;8.800;2023-01-26T05:37:08;79.67;;;31.53;;
19814;SDS011;10067;53.092;8.800;2023-01-26T05:39:34;73.00;;;29.93;;
19814;SDS011;10067;53.092;8.800;2023-01-26T05:42:01;72.17;;;29.47;;
19814;SDS011;10067;53.092;8.800;2023-01-26T05:44:28;79.03;;;32.20;;
19814;SDS011;10067;53.092;8.800;2023-01-26T05:46:56;70.43;;;29.20;;
19814;SDS011;10067;53.092;8.800;2023-01-26T05:49:22;80.17;;;32.30;;
19814;SDS011;10067;53.092;8.800;2023-01-26T05:51:49;81.90;;;33.10;;
19814;SDS011;10067;53.092;8.800;2023-01-26T05:54:16;71.60;;;29.53;;
19814;SDS011;10067;53.092;8.800;2023-01-26T05:56:42;73.17;;;29.40;;
19814;SDS011;10067;53.092;8.800;2023-01-26T05:59:09;70.60;;;31.13;;
19814;SDS011;10067;53.092;8.800;2023-01-26T06:01:35;74.93;;;32.17;;
19814;SDS011;10067;53.092;8.800;2023-01-26T06:04:04;67.40;;;29.33;;
19814;SDS011;10067;53.092;8.800;2023-01-26T06:06:31;68.77;;;28.80;;
19814;SDS011;10067;53.092;8.800;2023-01-26T06:08:58;62.93;;;25.87;;
19814;SDS011;10067;53.092;8.800;2023-01-26T06:11:24;63.77;;;26.87;;
19814;SDS011;10067;53.092;8.800;2023-01-26T06:13:51;66.57;;;27.67;;
19814;SDS011;10067;53.092;8.800;2023-01-26T06:16:17;68.80;;;27.87;;
19814;SDS011;10067;53.092;8.800;2023-01-26T06:18:46;62.20;;;26.60;;
19814;SDS011;10067;53.092;8.800;2023-01-26T06:21:14;56.67;;;25.13;;
19814;SDS011;10067;53.092;8.800;2023-01-26T06:23:41;59.87;;;26.10;;
19814;SDS011;10067;53.092;8.800;2023-01-26T06:26:07;52.13;;;24.40;;
19814;SDS011;10067;53.092;8.800;2023-01-26T06:28:34;60.20;;;25.07;;
19814;SDS011;10067;53.092;8.800;2023-01-26T06:31:01;66.00;;;30.60;;
19814;SDS011;10067;53.092;8.800;2023-01-26T06:33:27;58.33;;;27.90;;
19814;SDS011;10067;53.092;8.800;2023-01-26T06:35:54;66.67;;;29.33;;
19814;SDS011;10067;53.092;8.800;2023-01-26T06:38:22;61.67;;;26.93;;
19814;SDS011;10067;53.092;8.800;2023-01-26T06:40:48;62.60;;;27.37;;
19814;SDS011;10067;53.092;8.800;2023-01-26T06:43:15;59.03;;;26.03;;
19814;SDS011;10067;53.092;8.800;2023-01-26T06:45:41;58.03;;;24.33;;
19814;SDS011;10067;53.092;8.800;2023-01-26T06:48:08;54.83;;;25.30;;
19814;SDS011;10067;53.092;8.800;2023-01-26T06:50:34;57.93;;;23.83;;
19814;SDS011;10067;53.092;8.800;2023-01-26T06:53:02;52.50;;;22.80;;
19814;SDS011;10067;53.092;8.800;2023-01-26T06:55:31;50.17;;;22.00;;
19814;SDS011;10067;53.092;8.800;2023-01-26T06:57:59;49.47;;;21.50;;
19814;SDS011;10067;53.092;8.800;2023-01-26T07:00:25;46.67;;;20.77;;
19814;SDS011;10067;53.092;8.800;2023-01-26T07:02:52;48.43;;;21.07;;
19814;SDS011;10067;53.092;8.800;2023-01-26T07:05:18;49.60;;;21.00;;
19814;SDS011;10067;53.092;8.800;2023-01-26T07:07:45;45.93;;;21.80;;
19814;SDS011;10067;53.092;8.800;2023-01-26T07:10:11;44.10;;;19.47;;
19814;SDS011;10067;53.092;8.800;2023-01-26T07:12:40;43.93;;;19.00;;
19814;SDS011;10067;53.092;8.800;2023-01-26T07:15:07;42.77;;;18.90;;
19814;SDS011;10067;53.092;8.800;2023-01-26T07:17:33;41.57;;;19.53;;
19814;SDS011;10067;53.092;8.800;2023-01-26T07:20:00;41.77;;;19.63;;
19814;SDS011;10067;53.092;8.800;2023-01-26T07:22:26;39.90;;;19.60;;
19814;SDS011;10067;53.092;8.800;2023-01-26T07:24:52;44.97;;;19.67;;
19814;SDS011;10067;53.092;8.800;2023-01-26T07:27:19;41.43;;;19.10;;
19814;SDS011;10067;53.092;8.800;2023-01-26T07:29:47;40.53;;;18.73;;
19814;SDS011;10067;53.092;8.800;2023-01-26T07:32:14;39.70;;;19.03;;
19814;SDS011;10067;53.092;8.800;2023-01-26T07:34:40;41.30;;;18.37;;
19814;SDS011;10067;53.092;8.800;2023-01-26T07:37:06;44.67;;;20.53;;
19814;SDS011;10067;53.092;8.800;2023-01-26T07:39:33;43.10;;;19.50;;
19814;SDS011;10067;53.092;8.800;2023-01-26T07:41:59;42.57;;;20.13;;
19814;SDS011;10067;53.092;8.800;2023-01-26T07:44:26;44.60;;;20.37;;
19814;SDS011;10067;53.092;8.800;2023-01-26T07:46:53;47.57;;;20.23;;
19814;SDS011;10067;53.092;8.800;2023-01-26T07:49:20;43.07;;;19.53;;
19814;SDS011;10067;53.092;8.800;2023-01-26T07:51:46;40.00;;;17.63;;
19814;SDS011;10067;53.092;8.800;2023-01-26T07:54:13;34.97;;;17.40;;
19814;SDS011;10067;53.092;8.800;2023-01-26T07:56:39;41.30;;;17.90;;
19814;SDS011;10067;53.092;8.800;2023-01-26T07:59:05;38.83;;;16.30;;
19814;SDS011;10067;53.092;8.800;2023-01-26T08:01:32;43.40;;;18.40;;
19814;SDS011;10067;53.092;8.800;2023-01-26T08:04:00;35.70;;;17.50;;
19814;SDS011;10067;53.092;8.800;2023-01-26T08:06:26;35.97;;;16.17;;
19814;SDS011;10067;53.092;8.800;2023-01-26T08:08:52;41.07;;;16.97;;
19814;SDS011;10067;53.092;8.800;2023-01-26T08:11:19;36.33;;;16.17;;
19814;SDS011;10067;53.092;8.800;2023-01-26T08:13:47;37.57;;;16.73;;
19814;SDS011;10067;53.092;8.800;2023-01-26T08:16:14;36.33;;;16.53;;
19814;SDS011;10067;53.092;8.800;2023-01-26T08:18:41;34.70;;;15.80;;
19814;SDS011;10067;53.092;8.800;2023-01-26T08:21:09;31.57;;;16.03;;
19814;SDS011;10067;53.092;8.800;2023-01-26T08:23:35;34.07;;;15.60;;
19814;SDS011;10067;53.092;8.800;2023-01-26T08:26:02;36.37;;;16.37;;
19814;SDS011;10067;53.092;8.800;2023-01-26T08:28:28;35.30;;;16.17;;
19814;SDS011;10067;53.092;8.800;2023-01-26T08:30:55;36.33;;;16.40;;
19814;SDS011;10067;53.092;8.800;2023-01-26T08:33:21;34.20;;;16.50;;
19814;SDS011;10067;53.092;8.800;2023-01-26T08:35:48;35.13;;;16.70;;
19814;SDS011;10067;53.092;8.800;2023-01-26T08:38:16;33.40;;;16.47;;
19814;SDS011;10067;53.092;8.800;2023-01-26T08:40:42;38.20;;;16.60;;
19814;SDS011;10067;53.092;8.800;2023-01-26T08:43:08;37.03;;;16.93;;
19814;SDS011;10067;53.092;8.800;2023-01-26T08:45:35;37.47;;;17.87;;
19814;SDS011;10067;53.092;8.800;2023-01-26T08:48:01;36.47;;;18.00;;
19814;SDS011;10067;53.092;8.800;2023-01-26T08:50:27;40.57;;;19.57;;
19814;SDS011;10067;53.092;8.800;2023-01-26T08:52:54;39.37;;;18.63;;
19814;SDS011;10067;53.092;8.800;2023-01-26T08:55:22;40.93;;;19.63;;
19814;SDS011;10067;53.092;8.800;2023-01-26T08:57:52;45.10;;;19.37;;
19814;SDS011;10067;53.092;8.800;2023-01-26T09:00:20;42.80;;;19.20;;
19814;SDS011;10067;53.092;8.800;2023-01-26T09:02:47;43.83;;;18.60;;
19814;SDS011;10067;53.092;8.800;2023-01-26T09:05:14;43.63;;;19.53;;
19814;SDS011;10067;53.092;8.800;2023-01-26T09:07:40;41.23;;;18.33;;
19814;SDS011;10067;53.092;8.800;2023-01-26T09:10:07;47.13;;;21.63;;
19814;SDS011;10067;53.092;8.800;2023-01-26T09:12:35;50.73;;;19.57;;
19814;SDS011;10067;53.092;8.800;2023-01-26T09:15:02;40.90;;;18.70;;
19814;SDS011;10067;53.092;8.800;2023-01-26T09:17:28;44.60;;;18.67;;
19814;SDS011;10067;53.092;8.800;2023-01-26T09:19:55;47.37;;;19.83;;
19814;SDS011;10067;53.092;8.800;2023-01-26T09:22:21;39.10;;;19.47;;
19814;SDS011;10067;53.092;8.800;2023-01-26T09:24:48;46.97;;;20.17;;
19814;SDS011;10067;53.092;8.800;2023-01-26T09:27:14;47.67;;;18.73;;
19814;SDS011;10067;53.092;8.800;2023-01-26T09:29:42;43.90;;;19.87;;
19814;SDS011;10067;53.092;8.800;2023-01-26T09:32:08;43.80;;;19.50;;
19814;SDS011;10067;53.092;8.800;2023-01-26T09:34:35;40.53;;;19.00;;
19814;SDS011;10067;53.092;8.800;2023-01-26T09:37:01;41.97;;;19.17;;
19814;SDS011;10067;53.092;8.800;2023-01-26T09:39:27;44.03;;;19.27;;
19814;SDS011;10067;53.092;8.800;2023-01-26T09:42:01;49.10;;;19.13;;
19814;SDS011;10067;53.092;8.800;2023-01-26T09:44:30;47.43;;;19.30;;
19814;SDS011;10067;53.092;8.800;2023-01-26T09:47:01;55.57;;;21.83;;
19814;SDS011;10067;53.092;8.800;2023-01-26T09:49:30;51.60;;;20.63;;
19814;SDS011;10067;53.092;8.800;2023-01-26T09:52:03;62.77;;;22.07;;
19814;SDS011;10067;53.092;8.800;2023-01-26T09:54:31;59.83;;;21.80;;
19814;SDS011;10067;53.092;8.800;2023-01-26T09:56:59;63.70;;;22.67;;
19814;SDS011;10067;53.092;8.800;2023-01-26T09:59:27;62.67;;;22.20;;
19814;SDS011;10067;53.092;8.800;2023-01-26T10:01:57;64.53;;;24.93;;
19814;SDS011;10067;53.092;8.800;2023-01-26T10:04:28;65.17;;;23.17;;
19814;SDS011;10067;53.092;8.800;2023-01-26T10:06:57;73.73;;;24.40;;
19814;SDS011;10067;53.092;8.800;2023-01-26T10:09:25;70.97;;;25.47;;
19814;SDS011;10067;53.092;8.800;2023-01-26T10:11:54;72.93;;;24.37;;
19814;SDS011;10067;53.092;8.800;2023-01-26T10:14:24;77.53;;;25.00;;
19814;SDS011;10067;53.092;8.800;2023-01-26T10:16:54;73.20;;;23.63;;
19814;SDS011;10067;53.092;8.800;2023-01-26T10:19:25;79.93;;;27.07;;
19814;SDS011;10067;53.092;8.800;2023-01-26T10:21:55;84.00;;;27.20;;
19814;SDS011;10067;53.092;8.800;2023-01-26T10:24:23;66.77;;;23.93;;
19814;SDS011;10067;53.092;8.800;2023-01-26T10:26:49;69.97;;;25.03;;
19814;SDS011;10067;53.092;8.800;2023-01-26T10:29:17;71.57;;;26.90;;
19814;SDS011;10067;53.092;8.800;2023-01-26T10:31:44;71.37;;;25.23;;
19814;SDS011;10067;53.092;8.800;2023-01-26T10:34:12;70.23;;;24.40;;
19814;SDS011;10067;53.092;8.800;2023-01-26T10:36:39;70.77;;;24.50;;
19814;SDS011;10067;53.092;8.800;2023-01-26T10:39:08;86.17;;;26.63;;
19814;SDS011;10067;53.092;8.800;2023-01-26T10:41:34;86.87;;;27.10;;
19814;SDS011;10067;53.092;8.800;2023-01-26T10:44:01;77.73;;;27.00;;
19814;SDS011;10067;53.092;8.800;2023-01-26T10:46:31;78.23;;;27.17;;
19814;SDS011;10067;53.092;8.800;2023-01-26T10:48:58;86.77;;;27.20;;
19814;SDS011;10067;53.092;8.800;2023-01-26T10:51:27;85.20;;;27.60;;
19814;SDS011;10067;53.092;8.800;2023-01-26T10:56:46;88.17;;;27.90;;
19814;SDS011;10067;53.092;8.800;2023-01-26T10:59:21;86.73;;;26.70;;
19814;SDS011;10067;53.092;8.800;2023-01-26T11:01:50;84.90;;;27.03;;
19814;SDS011;10067;53.092;8.800;2023-01-26T11:04:17;88.77;;;27.63;;
19814;SDS011;10067;53.092;8.800;2023-01-26T11:06:44;80.10;;;26.47;;
19814;SDS011;10067;53.092;8.800;2023-01-26T11:09:14;82.03;;;28.77;;
19814;SDS011;10067;53.092;8.800;2023-01-26T11:11:48;80.00;;;27.27;;
19814;SDS011;10067;53.092;8.800;2023-01-26T11:14:19;82.93;;;29.47;;
19814;SDS011;10067;53.092;8.800;2023-01-26T11:16:46;84.80;;;28.53;;
19814;SDS011;10067;53.092;8.800;2023-01-26T11:19:16;83.83;;;27.50;;
19814;SDS011;10067;53.092;8.800;2023-01-26T11:21:49;83.77;;;27.50;;
19814;SDS011;10067;53.092;8.800;2023-01-26T11:24:19;81.43;;;26.40;;
19814;SDS011;10067;53.092;8.800;2023-01-26T11:27:01;86.50;;;29.27;;
19814;SDS011;10067;53.092;8.800;2023-01-26T11:29:39;79.87;;;26.03;;
19814;SDS011;10067;53.092;8.800;2023-01-26T11:32:09;86.03;;;26.53;;
19814;SDS011;10067;53.092;8.800;2023-01-26T11:34:39;76.00;;;26.13;;
19814;SDS011;10067;53.092;8.800;2023-01-26T11:37:17;81.63;;;25.83;;
19814;SDS011;10067;53.092;8.800;2023-01-26T11:39:51;82.07;;;26.10;;
19814;SDS011;10067;53.092;8.800;2023-01-26T11:42:23;81.53;;;26.97;;
19814;SDS011;10067;53.092;8.800;2023-01-26T11:44:54;71.30;;;25.67;;
19814;SDS011;10067;53.092;8.800;2023-01-26T11:47:28;72.40;;;25.37;;
19814;SDS011;10067;53.092;8.800;2023-01-26T11:50:03;73.17;;;25.63;;
19814;SDS011;10067;53.092;8.800;2023-01-26T11:52:33;70.37;;;25.87;;
19814;SDS011;10067;53.092;8.800;2023-01-26T11:55:06;81.50;;;25.47;;
19814;SDS011;10067;53.092;8.800;2023-01-26T11:57:40;68.13;;;23.93;;
19814;SDS011;10067;53.092;8.800;2023-01-26T12:00:13;65.13;;;22.57;;
19814;SDS011;10067;53.092;8.800;2023-01-26T12:02:41;71.00;;;25.93;;
19814;SDS011;10067;53.092;8.800;2023-01-26T12:05:11;73.37;;;26.87;;
19814;SDS011;10067;53.092;8.800;2023-01-26T12:07:40;79.27;;;26.17;;
19814;SDS011;10067;53.092;8.800;2023-01-26T12:10:19;72.00;;;24.37;;
19814;SDS011;10067;53.092;8.800;2023-01-26T12:12:50;75.50;;;24.97;;
19814;SDS011;10067;53.092;8.800;2023-01-26T12:15:20;59.63;;;23.63;;
19814;SDS011;10067;53.092;8.800;2023-01-26T12:17:51;62.27;;;23.33;;
19814;SDS011;10067;53.092;8.800;2023-01-26T12:20:25;61.33;;;23.20;;
19814;SDS011;10067;53.092;8.800;2023-01-26T12:22:53;62.17;;;22.80;;
19814;SDS011;10067;53.092;8.800;2023-01-26T12:25:22;64.67;;;23.27;;
19814;SDS011;10067;53.092;8.800;2023-01-26T12:27:54;60.17;;;22.13;;
19814;SDS011;10067;53.092;8.800;2023-01-26T12:30:29;57.63;;;20.53;;
19814;SDS011;10067;53.092;8.800;2023-01-26T12:32:58;56.67;;;20.47;;
19814;SDS011;10067;53.092;8.800;2023-01-26T12:35:28;57.00;;;20.40;;
19814;SDS011;10067;53.092;8.800;2023-01-26T12:37:57;50.33;;;18.90;;
19814;SDS011;10067;53.092;8.800;2023-01-26T12:40:29;59.37;;;19.53;;
19814;SDS011;10067;53.092;8.800;2023-01-26T12:43:04;59.53;;;20.17;;
19814;SDS011;10067;53.092;8.800;2023-01-26T12:45:34;52.23;;;17.87;;
19814;SDS011;10067;53.092;8.800;2023-01-26T12:48:04;56.23;;;20.03;;
19814;SDS011;10067;53.092;8.800;2023-01-26T12:50:34;54.07;;;18.40;;
19814;SDS011;10067;53.092;8.800;2023-01-26T12:53:04;58.50;;;19.37;;
19814;SDS011;10067;53.092;8.800;2023-01-26T12:55:33;45.90;;;17.87;;
19814;SDS011;10067;53.092;8.800;2023-01-26T12:58:03;48.83;;;18.73;;
19814;SDS011;10067;53.092;8.800;2023-01-26T13:00:31;48.53;;;18.23;;
19814;SDS011;10067;53.092;8.800;2023-01-26T13:02:59;47.50;;;18.47;;
19814;SDS011;10067;53.092;8.800;2023-01-26T13:05:29;42.47;;;16.33;;
19814;SDS011;10067;53.092;8.800;2023-01-26T13:07:55;44.63;;;16.07;;
19814;SDS011;10067;53.092;8.800;2023-01-26T13:10:23;43.23;;;17.10;;
19814;SDS011;10067;53.092;8.800;2023-01-26T13:12:50;47.77;;;16.03;;
19814;SDS011;10067;53.092;8.800;2023-01-26T13:15:19;45.57;;;15.40;;
19814;SDS011;10067;53.092;8.800;2023-01-26T13:17:50;35.07;;;15.07;;
19814;SDS011;10067;53.092;8.800;2023-01-26T13:20:27;33.60;;;13.00;;
19814;SDS011;10067;53.092;8.800;2023-01-26T13:22:57;36.83;;;13.43;;
19814;SDS011;10067;53.092;8.800;2023-01-26T13:25:30;38.00;;;13.30;;
19814;SDS011;10067;53.092;8.800;2023-01-26T13:27:57;39.63;;;11.43;;
19814;SDS011;10067;53.092;8.800;2023-01-26T13:33:14;30.80;;;11.60;;
19814;SDS011;10067;53.092;8.800;2023-01-26T13:35:42;37.47;;;12.63;;
19814;SDS011;10067;53.092;8.800;2023-01-26T13:38:11;35.47;;;12.13;;
19814;SDS011;10067;53.092;8.800;2023-01-26T13:40:40;32.93;;;11.07;;
19814;SDS011;10067;53.092;8.800;2023-01-26T13:43:10;40.37;;;12.43;;
19814;SDS011;10067;53.092;8.800;2023-01-26T13:45:39;35.80;;;11.63;;
19814;SDS011;10067;53.092;8.800;2023-01-26T13:48:12;34.23;;;11.97;;
19814;SDS011;10067;53.092;8.800;2023-01-26T13:50:40;36.97;;;11.83;;
19814;SDS011;10067;53.092;8.800;2023-01-26T13:56:14;37.57;;;12.77;;
19814;SDS011;10067;53.092;8.800;2023-01-26T13:58:44;39.07;;;12.50;;
19814;SDS011;10067;53.092;8.800;2023-01-26T14:01:11;40.33;;;13.43;;
19814;SDS011;10067;53.092;8.800;2023-01-26T14:03:38;43.43;;;14.47;;
19814;SDS011;10067;53.092;8.800;2023-01-26T14:06:07;33.17;;;12.93;;
19814;SDS011;10067;53.092;8.800;2023-01-26T14:08:34;43.07;;;14.90;;
19814;SDS011;10067;53.092;8.800;2023-01-26T14:11:02;37.20;;;12.53;;
19814;SDS011;10067;53.092;8.800;2023-01-26T14:13:31;39.63;;;14.47;;
19814;SDS011;10067;53.092;8.800;2023-01-26T14:15:58;49.13;;;15.87;;
19814;SDS011;10067;53.092;8.800;2023-01-26T14:18:25;36.33;;;14.33;;
19814;SDS011;10067;53.092;8.800;2023-01-26T14:20:58;45.10;;;15.83;;
19814;SDS011;10067;53.092;8.800;2023-01-26T14:23:27;38.67;;;15.17;;
19814;SDS011;10067;53.092;8.800;2023-01-26T14:25:58;35.27;;;13.53;;
19814;SDS011;10067;53.092;8.800;2023-01-26T14:28:27;36.63;;;13.80;;
19814;SDS011;10067;53.092;8.800;2023-01-26T14:30:58;41.00;;;15.90;;
19814;SDS011;10067;53.092;8.800;2023-01-26T14:33:25;34.50;;;13.57;;
19814;SDS011;10067;53.092;8.800;2023-01-26T14:35:55;33.33;;;13.90;;